CheckWX is a tool to help pilots better visualize weather data.  It is not intended as a substitute for an official pre-flight weather briefing.

20:08:07 UTC

KCQM METAR
Cook Municipal Airport
Cook, Minnesota, USA
Current

13 mins ago

KCQM 201955Z AUTO 00000KT 2SM -SN BKN010 OVC014 01/00 A3001 RMK AO2 VIS 1 1/2V3
Observed
Nov-20 @ 19:55 UTC
Visibility
2 SM
Flight Rules
IFR
Conditions
Light Snow
Cloud Levels
  • Broken at 1,000' AGL
  • Overcast at 1,400' AGL
Temperature
C / 34°F
Dewpoint
C / 32°F
Humidity
93%
Altimeter
30.01" Hg
Pressure
1016.22 hPa
Previous

32 mins ago

KCQM 201936Z AUTO 00000KT 10SM RA SCT010 SCT014 02/00 A3001 RMK AO2
Observed
Nov-20 @ 19:36 UTC
Visibility
10 SM
Flight Rules
VFR
Conditions
Rain
Cloud Levels
  • Scattered at 1,000' AGL
  • Scattered at 1,400' AGL
Temperature
C / 36°F
Dewpoint
C / 32°F
Humidity
87%
Altimeter
30.01" Hg
Pressure
1016.22 hPa
Previous

52 mins ago

KCQM 201916Z AUTO 00000KT 10SM SCT070 02/M01 A3000 RMK AO2
Observed
Nov-20 @ 19:16 UTC
Visibility
10 SM
Flight Rules
VFR
Cloud Levels
  • Scattered at 7,000' AGL
Temperature
C / 36°F
Dewpoint
-1°C / 30°F
Humidity
81%
Altimeter
30" Hg
Pressure
1015.92 hPa